sensor_id;sensor_type;location;lat;lon;timestamp;pressure;altitude;pressure_sealevel;temperature;humidity
56630;BME280;42502;40.732;-74.254;2022-12-07T00:01:30;101482.81;;;16.95;42.14
56630;BME280;42502;40.732;-74.254;2022-12-07T00:03:31;101472.56;;;16.90;41.63
56630;BME280;42502;40.732;-74.254;2022-12-07T00:05:34;101474.13;;;16.96;41.85
56630;BME280;42502;40.732;-74.254;2022-12-07T00:07:35;101473.91;;;16.93;41.82
56630;BME280;42502;40.732;-74.254;2022-12-07T00:09:36;101482.28;;;16.93;41.74
56630;BME280;42502;40.732;-74.254;2022-12-07T00:11:37;101483.31;;;16.97;41.94
56630;BME280;42502;40.732;-74.254;2022-12-07T00:13:38;101481.66;;;16.96;41.88
56630;BME280;42502;40.732;-74.254;2022-12-07T00:15:39;101475.75;;;16.97;41.87
56630;BME280;42502;40.732;-74.254;2022-12-07T00:17:40;101469.34;;;16.97;42.13
56630;BME280;42502;40.732;-74.254;2022-12-07T00:19:44;101458.50;;;16.95;42.09
56630;BME280;42502;40.732;-74.254;2022-12-07T00:21:51;101461.81;;;16.97;41.90
56630;BME280;42502;40.732;-74.254;2022-12-07T00:23:53;101462.66;;;16.98;42.07
56630;BME280;42502;40.732;-74.254;2022-12-07T00:25:54;101453.22;;;16.94;42.20
56630;BME280;42502;40.732;-74.254;2022-12-07T00:27:55;101467.06;;;16.99;42.24
56630;BME280;42502;40.732;-74.254;2022-12-07T00:29:57;101469.03;;;16.98;41.76
56630;BME280;42502;40.732;-74.254;2022-12-07T00:31:57;101458.69;;;16.99;42.17
56630;BME280;42502;40.732;-74.254;2022-12-07T00:33:59;101460.97;;;16.97;41.96
56630;BME280;42502;40.732;-74.254;2022-12-07T00:36:00;101459.53;;;16.99;41.84
56630;BME280;42502;40.732;-74.254;2022-12-07T00:38:03;101460.38;;;17.00;42.07
56630;BME280;42502;40.732;-74.254;2022-12-07T00:40:05;101457.56;;;17.00;42.14
56630;BME280;42502;40.732;-74.254;2022-12-07T00:42:06;101453.66;;;17.01;41.89
56630;BME280;42502;40.732;-74.254;2022-12-07T00:44:07;101461.19;;;17.00;42.07
56630;BME280;42502;40.732;-74.254;2022-12-07T00:46:11;101450.00;;;17.00;42.11
56630;BME280;42502;40.732;-74.254;2022-12-07T00:48:13;101459.22;;;17.01;41.99
56630;BME280;42502;40.732;-74.254;2022-12-07T00:50:13;101445.91;;;16.98;42.06
56630;BME280;42502;40.732;-74.254;2022-12-07T00:52:14;101460.38;;;17.00;41.84
56630;BME280;42502;40.732;-74.254;2022-12-07T00:54:15;101460.06;;;17.01;42.13
56630;BME280;42502;40.732;-74.254;2022-12-07T00:56:24;101463.66;;;17.02;42.18
56630;BME280;42502;40.732;-74.254;2022-12-07T00:58:25;101449.81;;;16.97;42.19
56630;BME280;42502;40.732;-74.254;2022-12-07T01:00:26;101450.00;;;17.00;41.75
56630;BME280;42502;40.732;-74.254;2022-12-07T01:02:32;101449.19;;;17.00;41.99
56630;BME280;42502;40.732;-74.254;2022-12-07T01:04:36;101451.38;;;17.03;42.09
56630;BME280;42502;40.732;-74.254;2022-12-07T01:06:37;101447.75;;;17.02;41.86
56630;BME280;42502;40.732;-74.254;2022-12-07T01:08:42;101445.78;;;17.03;42.19
56630;BME280;42502;40.732;-74.254;2022-12-07T01:10:46;101451.38;;;17.03;42.05
56630;BME280;42502;40.732;-74.254;2022-12-07T01:12:47;101455.81;;;17.04;41.82
56630;BME280;42502;40.732;-74.254;2022-12-07T01:14:48;101453.34;;;17.02;42.10
56630;BME280;42502;40.732;-74.254;2022-12-07T01:16:49;101463.66;;;17.02;42.15
56630;BME280;42502;40.732;-74.254;2022-12-07T01:18:52;101450.56;;;17.02;42.30
56630;BME280;42502;40.732;-74.254;2022-12-07T01:21:02;101456.94;;;17.03;42.11
56630;BME280;42502;40.732;-74.254;2022-12-07T01:23:06;101451.06;;;17.04;42.04
56630;BME280;42502;40.732;-74.254;2022-12-07T01:25:08;101446.31;;;17.05;42.04
56630;BME280;42502;40.732;-74.254;2022-12-07T01:27:13;101444.66;;;17.04;42.00
56630;BME280;42502;40.732;-74.254;2022-12-07T01:29:16;101445.28;;;17.01;42.36
56630;BME280;42502;40.732;-74.254;2022-12-07T01:31:19;101446.59;;;17.03;42.10
56630;BME280;42502;40.732;-74.254;2022-12-07T01:33:20;101446.31;;;17.05;42.09
56630;BME280;42502;40.732;-74.254;2022-12-07T01:35:21;101444.66;;;17.04;42.19
56630;BME280;42502;40.732;-74.254;2022-12-07T01:37:22;101441.25;;;17.07;41.87
56630;BME280;42502;40.732;-74.254;2022-12-07T01:39:26;101431.81;;;17.03;42.07
56630;BME280;42502;40.732;-74.254;2022-12-07T01:41:30;101432.88;;;17.07;42.31
56630;BME280;42502;40.732;-74.254;2022-12-07T01:43:33;101427.28;;;17.07;42.03
56630;BME280;42502;40.732;-74.254;2022-12-07T01:45:41;101430.06;;;17.07;42.34
56630;BME280;42502;40.732;-74.254;2022-12-07T01:47:45;101442.91;;;17.08;42.41
56630;BME280;42502;40.732;-74.254;2022-12-07T01:49:50;101438.13;;;17.09;42.11
56630;BME280;42502;40.732;-74.254;2022-12-07T01:51:54;101442.38;;;17.06;42.34
56630;BME280;42502;40.732;-74.254;2022-12-07T01:54:01;101431.00;;;17.02;42.21
56630;BME280;42502;40.732;-74.254;2022-12-07T01:56:02;101442.59;;;17.10;42.34
56630;BME280;42502;40.732;-74.254;2022-12-07T01:58:03;101437.00;;;17.10;42.25
56630;BME280;42502;40.732;-74.254;2022-12-07T02:00:07;101435.34;;;17.09;42.56
56630;BME280;42502;40.732;-74.254;2022-12-07T02:02:15;101437.31;;;17.08;42.61
56630;BME280;42502;40.732;-74.254;2022-12-07T02:04:18;101444.53;;;17.09;42.33
56630;BME280;42502;40.732;-74.254;2022-12-07T02:06:23;101442.69;;;17.04;42.52
56630;BME280;42502;40.732;-74.254;2022-12-07T02:08:25;101452.91;;;17.09;42.45
56630;BME280;42502;40.732;-74.254;2022-12-07T02:10:29;101453.44;;;17.11;42.21
56630;BME280;42502;40.732;-74.254;2022-12-07T02:12:33;101456.56;;;17.10;42.37
56630;BME280;42502;40.732;-74.254;2022-12-07T02:14:34;101456.25;;;17.11;42.31
56630;BME280;42502;40.732;-74.254;2022-12-07T02:19:44;101447.88;;;17.11;42.63
56630;BME280;42502;40.732;-74.254;2022-12-07T02:31:06;101428.91;;;17.22;45.82
56630;BME280;42502;40.732;-74.254;2022-12-07T02:33:30;101431.78;;;17.31;45.53
56630;BME280;42502;40.732;-74.254;2022-12-07T02:36:00;101434.47;;;17.36;46.05
56630;BME280;42502;40.732;-74.254;2022-12-07T02:38:20;101422.03;;;17.42;46.03
56630;BME280;42502;40.732;-74.254;2022-12-07T02:40:41;101423.06;;;17.46;46.38
56630;BME280;42502;40.732;-74.254;2022-12-07T02:42:49;101426.56;;;17.52;46.86
56630;BME280;42502;40.732;-74.254;2022-12-07T02:44:52;101416.41;;;17.56;46.26
56630;BME280;42502;40.732;-74.254;2022-12-07T02:47:19;101431.72;;;17.58;46.70
56630;BME280;42502;40.732;-74.254;2022-12-07T02:49:23;101410.69;;;17.61;46.87
56630;BME280;42502;40.732;-74.254;2022-12-07T02:51:25;101408.09;;;17.65;47.30
56630;BME280;42502;40.732;-74.254;2022-12-07T02:55:40;101405.38;;;17.73;47.74
56630;BME280;42502;40.732;-74.254;2022-12-07T02:58:11;101403.41;;;17.74;47.60
56630;BME280;42502;40.732;-74.254;2022-12-07T03:00:20;101402.97;;;17.81;47.45
56630;BME280;42502;40.732;-74.254;2022-12-07T03:08:10;101400.13;;;17.94;47.12
56630;BME280;42502;40.732;-74.254;2022-12-07T03:10:28;101401.16;;;17.99;47.67
56630;BME280;42502;40.732;-74.254;2022-12-07T03:13:23;101396.41;;;17.99;47.11
56630;BME280;42502;40.732;-74.254;2022-12-07T03:18:04;101400.72;;;18.05;46.77
56630;BME280;42502;40.732;-74.254;2022-12-07T03:20:07;101399.53;;;18.06;47.16
56630;BME280;42502;40.732;-74.254;2022-12-07T03:22:12;101399.22;;;18.08;46.75
56630;BME280;42502;40.732;-74.254;2022-12-07T03:24:19;101390.53;;;18.09;47.18
56630;BME280;42502;40.732;-74.254;2022-12-07T03:26:30;101389.06;;;18.12;47.24
56630;BME280;42502;40.732;-74.254;2022-12-07T03:28:39;101384.59;;;18.11;47.10
56630;BME280;42502;40.732;-74.254;2022-12-07T03:31:06;101393.19;;;18.15;47.16
56630;BME280;42502;40.732;-74.254;2022-12-07T03:35:29;101396.16;;;18.18;47.06
56630;BME280;42502;40.732;-74.254;2022-12-07T03:37:46;101401.63;;;18.23;46.67
56630;BME280;42502;40.732;-74.254;2022-12-07T03:39:59;101396.03;;;18.23;46.78
56630;BME280;42502;40.732;-74.254;2022-12-07T03:42:04;101401.50;;;18.28;46.42
56630;BME280;42502;40.732;-74.254;2022-12-07T03:44:06;101390.94;;;18.25;46.71
56630;BME280;42502;40.732;-74.254;2022-12-07T03:48:40;101393.28;;;18.32;46.66
56630;BME280;42502;40.732;-74.254;2022-12-07T03:51:21;101406.13;;;18.33;46.56
56630;BME280;42502;40.732;-74.254;2022-12-07T03:53:46;101405.47;;;18.36;46.40
56630;BME280;42502;40.732;-74.254;2022-12-07T03:55:51;101391.66;;;18.40;46.35
56630;BME280;42502;40.732;-74.254;2022-12-07T03:57:58;101400.06;;;18.40;46.06
56630;BME280;42502;40.732;-74.254;2022-12-07T04:00:04;101394.13;;;18.41;46.14
56630;BME280;42502;40.732;-74.254;2022-12-07T04:02:07;101386.28;;;18.43;46.06
56630;BME280;42502;40.732;-74.254;2022-12-07T04:04:11;101387.09;;;18.44;46.01
56630;BME280;42502;40.732;-74.254;2022-12-07T04:06:12;101385.94;;;18.45;45.92
56630;BME280;42502;40.732;-74.254;2022-12-07T04:08:13;101387.25;;;18.47;46.09
56630;BME280;42502;40.732;-74.254;2022-12-07T04:10:14;101384.47;;;18.47;45.76
56630;BME280;42502;40.732;-74.254;2022-12-07T04:12:14;101377.56;;;18.45;45.57
56630;BME280;42502;40.732;-74.254;2022-12-07T04:14:15;101378.38;;;18.45;45.40
56630;BME280;42502;40.732;-74.254;2022-12-07T04:16:19;101369.81;;;18.42;45.28
56630;BME280;42502;40.732;-74.254;2022-12-07T04:18:20;101371.44;;;18.43;45.27
56630;BME280;42502;40.732;-74.254;2022-12-07T04:20:21;101377.34;;;18.41;45.34
56630;BME280;42502;40.732;-74.254;2022-12-07T04:22:22;101371.75;;;18.41;45.11
56630;BME280;42502;40.732;-74.254;2022-12-07T04:24:23;101362.56;;;18.41;45.04
56630;BME280;42502;40.732;-74.254;2022-12-07T04:26:24;101364.84;;;18.39;45.07
56630;BME280;42502;40.732;-74.254;2022-12-07T04:28:25;101364.34;;;18.37;45.19
56630;BME280;42502;40.732;-74.254;2022-12-07T04:30:26;101355.44;;;18.35;45.04
56630;BME280;42502;40.732;-74.254;2022-12-07T04:32:27;101352.34;;;18.36;45.11
56630;BME280;42502;40.732;-74.254;2022-12-07T04:34:28;101352.97;;;18.33;45.12
56630;BME280;42502;40.732;-74.254;2022-12-07T04:36:29;101356.59;;;18.34;44.94
56630;BME280;42502;40.732;-74.254;2022-12-07T04:38:29;101354.13;;;18.32;44.97
56630;BME280;42502;40.732;-74.254;2022-12-07T04:40:30;101353.31;;;18.32;44.74
56630;BME280;42502;40.732;-74.254;2022-12-07T04:42:31;101349.69;;;18.31;45.05
56630;BME280;42502;40.732;-74.254;2022-12-07T04:44:32;101344.91;;;18.32;44.89
56630;BME280;42502;40.732;-74.254;2022-12-07T04:46:36;101344.41;;;18.29;44.89
56630;BME280;42502;40.732;-74.254;2022-12-07T04:48:40;101341.91;;;18.28;44.83
56630;BME280;42502;40.732;-74.254;2022-12-07T04:50:40;101331.69;;;18.23;44.72
56630;BME280;42502;40.732;-74.254;2022-12-07T04:52:44;101330.06;;;18.22;44.90
56630;BME280;42502;40.732;-74.254;2022-12-07T04:54:45;101327.28;;;18.22;44.73
56630;BME280;42502;40.732;-74.254;2022-12-07T04:56:46;101319.88;;;18.26;44.83
56630;BME280;42502;40.732;-74.254;2022-12-07T04:58:48;101319.38;;;18.24;44.88
56630;BME280;42502;40.732;-74.254;2022-12-07T05:00:49;101323.63;;;18.22;44.84
56630;BME280;42502;40.732;-74.254;2022-12-07T05:02:50;101308.81;;;18.21;45.06
56630;BME280;42502;40.732;-74.254;2022-12-07T05:04:51;101307.16;;;18.20;44.74
56630;BME280;42502;40.732;-74.254;2022-12-07T05:06:51;101308.81;;;18.21;44.83
56630;BME280;42502;40.732;-74.254;2022-12-07T05:08:58;101297.28;;;18.14;44.75
56630;BME280;42502;40.732;-74.254;2022-12-07T05:11:01;101302.41;;;18.21;45.07
56630;BME280;42502;40.732;-74.254;2022-12-07T05:13:02;101299.94;;;18.19;44.80
56630;BME280;42502;40.732;-74.254;2022-12-07T05:15:04;101305.53;;;18.19;44.72
56630;BME280;42502;40.732;-74.254;2022-12-07T05:17:05;101302.22;;;18.17;44.74
56630;BME280;42502;40.732;-74.254;2022-12-07T05:19:06;101310.63;;;18.17;44.88
56630;BME280;42502;40.732;-74.254;2022-12-07T05:21:07;101300.41;;;18.13;44.86
56630;BME280;42502;40.732;-74.254;2022-12-07T05:23:08;101305.88;;;18.18;44.91
56630;BME280;42502;40.732;-74.254;2022-12-07T05:25:09;101294.00;;;18.12;44.75
56630;BME280;42502;40.732;-74.254;2022-12-07T05:27:13;101301.25;;;18.13;45.19
56630;BME280;42502;40.732;-74.254;2022-12-07T05:29:15;101294.47;;;18.14;44.76
56630;BME280;42502;40.732;-74.254;2022-12-07T05:31:19;101291.19;;;18.12;44.96
56630;BME280;42502;40.732;-74.254;2022-12-07T05:33:20;101280.31;;;18.10;44.81
56630;BME280;42502;40.732;-74.254;2022-12-07T05:35:21;101282.81;;;18.12;44.93
56630;BME280;42502;40.732;-74.254;2022-12-07T05:37:22;101286.72;;;18.11;44.95
56630;BME280;42502;40.732;-74.254;2022-12-07T05:39:26;101282.31;;;18.10;44.65
56630;BME280;42502;40.732;-74.254;2022-12-07T05:41:27;101289.22;;;18.13;44.83
56630;BME280;42502;40.732;-74.254;2022-12-07T05:43:46;101289.03;;;18.09;44.73
56630;BME280;42502;40.732;-74.254;2022-12-07T05:45:47;101264.16;;;17.99;44.61
56630;BME280;42502;40.732;-74.254;2022-12-07T05:47:48;101290.69;;;18.10;44.84
56630;BME280;42502;40.732;-74.254;2022-12-07T05:49:49;101290.69;;;18.10;44.80
56630;BME280;42502;40.732;-74.254;2022-12-07T05:51:50;101289.03;;;18.09;44.69
56630;BME280;42502;40.732;-74.254;2022-12-07T05:53:51;101292.66;;;18.09;44.78
56630;BME280;42502;40.732;-74.254;2022-12-07T05:55:52;101288.72;;;18.10;44.78
56630;BME280;42502;40.732;-74.254;2022-12-07T05:57:55;101287.06;;;18.09;44.74
56630;BME280;42502;40.732;-74.254;2022-12-07T06:00:15;101287.91;;;18.10;44.75
56630;BME280;42502;40.732;-74.254;2022-12-07T06:02:16;101289.03;;;18.09;44.91
56630;BME280;42502;40.732;-74.254;2022-12-07T06:04:17;101276.03;;;18.04;44.91
56630;BME280;42502;40.732;-74.254;2022-12-07T06:06:19;101280.97;;;18.07;44.74
56630;BME280;42502;40.732;-74.254;2022-12-07T06:08:22;101278.34;;;18.02;44.66
56630;BME280;42502;40.732;-74.254;2022-12-07T06:10:23;101279.31;;;18.06;44.93
56630;BME280;42502;40.732;-74.254;2022-12-07T06:12:24;101274.91;;;18.05;44.90
56630;BME280;42502;40.732;-74.254;2022-12-07T06:14:39;101274.56;;;18.07;44.75
56630;BME280;42502;40.732;-74.254;2022-12-07T06:16:46;101279.31;;;18.06;44.81
56630;BME280;42502;40.732;-74.254;2022-12-07T06:18:47;101288.88;;;18.05;44.78
56630;BME280;42502;40.732;-74.254;2022-12-07T06:20:48;101286.06;;;18.05;44.61
56630;BME280;42502;40.732;-74.254;2022-12-07T06:22:49;101288.03;;;18.05;44.74
56630;BME280;42502;40.732;-74.254;2022-12-07T06:24:50;101296.41;;;18.05;44.77
56630;BME280;42502;40.732;-74.254;2022-12-07T06:26:51;101298.41;;;18.04;44.67
56630;BME280;42502;40.732;-74.254;2022-12-07T06:28:52;101300.69;;;18.02;44.59
56630;BME280;42502;40.732;-74.254;2022-12-07T06:31:02;101293.94;;;18.03;45.15
56630;BME280;42502;40.732;-74.254;2022-12-07T06:33:03;101287.53;;;18.03;44.79
56630;BME280;42502;40.732;-74.254;2022-12-07T06:35:05;101287.53;;;18.03;44.63
56630;BME280;42502;40.732;-74.254;2022-12-07T06:37:06;101278.13;;;17.99;44.71
56630;BME280;42502;40.732;-74.254;2022-12-07T06:39:10;101292.31;;;18.02;44.76
56630;BME280;42502;40.732;-74.254;2022-12-07T06:41:11;101284.75;;;18.03;44.80
56630;BME280;42502;40.732;-74.254;2022-12-07T06:43:12;101291.47;;;18.02;44.61
56630;BME280;42502;40.732;-74.254;2022-12-07T06:45:13;101283.09;;;18.02;44.64
56630;BME280;42502;40.732;-74.254;2022-12-07T06:47:14;101285.88;;;18.02;44.66
56630;BME280;42502;40.732;-74.254;2022-12-07T06:49:15;101276.19;;;17.99;44.88
56630;BME280;42502;40.732;-74.254;2022-12-07T06:51:16;101280.59;;;18.00;44.62
56630;BME280;42502;40.732;-74.254;2022-12-07T06:53:20;101278.97;;;17.99;44.44
56630;BME280;42502;40.732;-74.254;2022-12-07T06:55:21;101277.31;;;17.98;44.80
56630;BME280;42502;40.732;-74.254;2022-12-07T06:57:22;101278.47;;;17.97;44.69
56630;BME280;42502;40.732;-74.254;2022-12-07T06:59:25;101270.38;;;17.96;44.69
56630;BME280;42502;40.732;-74.254;2022-12-07T07:01:29;101283.41;;;18.00;44.79
56630;BME280;42502;40.732;-74.254;2022-12-07T07:03:30;101282.38;;;17.96;44.75
56630;BME280;42502;40.732;-74.254;2022-12-07T07:05:31;101286.53;;;17.99;44.57
56630;BME280;42502;40.732;-74.254;2022-12-07T07:07:32;101289.84;;;18.01;44.50
56630;BME280;42502;40.732;-74.254;2022-12-07T07:09:32;101278.13;;;17.99;44.60
56630;BME280;42502;40.732;-74.254;2022-12-07T07:11:33;101282.59;;;18.00;44.48
56630;BME280;42502;40.732;-74.254;2022-12-07T07:13:37;101290.78;;;17.96;44.69
56630;BME280;42502;40.732;-74.254;2022-12-07T07:15:38;101296.56;;;18.00;44.76
56630;BME280;42502;40.732;-74.254;2022-12-07T07:17:39;101292.13;;;17.99;44.86
56630;BME280;42502;40.732;-74.254;2022-12-07T07:19:40;101292.13;;;17.99;44.79
56630;BME280;42502;40.732;-74.254;2022-12-07T07:21:41;101290.16;;;17.99;44.42
56630;BME280;42502;40.732;-74.254;2022-12-07T07:23:42;101292.13;;;17.99;44.49
56630;BME280;42502;40.732;-74.254;2022-12-07T07:25:44;101293.28;;;17.98;44.81
56630;BME280;42502;40.732;-74.254;2022-12-07T07:27:45;101289.31;;;17.99;44.51
56630;BME280;42502;40.732;-74.254;2022-12-07T07:29:45;101286.84;;;17.97;44.57
56630;BME280;42502;40.732;-74.254;2022-12-07T07:31:46;101270.91;;;17.98;44.64
56630;BME280;42502;40.732;-74.254;2022-12-07T07:33:50;101278.97;;;17.99;44.50
56630;BME280;42502;40.732;-74.254;2022-12-07T07:35:51;101278.13;;;17.99;44.65
56630;BME280;42502;40.732;-74.254;2022-12-07T07:37:52;101273.38;;;17.99;44.33
56630;BME280;42502;40.732;-74.254;2022-12-07T07:39:53;101265.13;;;17.94;44.36
56630;BME280;42502;40.732;-74.254;2022-12-07T07:41:53;101269.75;;;17.99;44.58
56630;BME280;42502;40.732;-74.254;2022-12-07T07:43:54;101276.19;;;17.99;44.56
56630;BME280;42502;40.732;-74.254;2022-12-07T07:45:55;101264.16;;;17.99;44.33
56630;BME280;42502;40.732;-74.254;2022-12-07T07:47:59;101262.00;;;17.96;44.68
56630;BME280;42502;40.732;-74.254;2022-12-07T07:50:00;101264.81;;;17.96;44.45
56630;BME280;42502;40.732;-74.254;2022-12-07T07:52:01;101265.31;;;17.98;44.73
56630;BME280;42502;40.732;-74.254;2022-12-07T07:54:02;101260.53;;;17.98;44.34
56630;BME280;42502;40.732;-74.254;2022-12-07T07:56:03;101257.56;;;17.94;44.30
56630;BME280;42502;40.732;-74.254;2022-12-07T07:58:04;101256.41;;;17.96;44.60
56630;BME280;42502;40.732;-74.254;2022-12-07T08:00:10;101262.53;;;17.98;44.57
56630;BME280;42502;40.732;-74.254;2022-12-07T08:02:17;101259.22;;;17.96;44.58
56630;BME280;42502;40.732;-74.254;2022-12-07T08:04:20;101267.28;;;17.97;44.57
56630;BME280;42502;40.732;-74.254;2022-12-07T08:06:21;101259.72;;;17.98;44.65
56630;BME280;42502;40.732;-74.254;2022-12-07T08:08:25;101246.69;;;17.93;44.51
56630;BME280;42502;40.732;-74.254;2022-12-07T08:10:26;101261.34;;;17.99;44.38
56630;BME280;42502;40.732;-74.254;2022-12-07T08:12:27;101256.94;;;17.98;44.41
56630;BME280;42502;40.732;-74.254;2022-12-07T08:14:28;101259.22;;;17.96;44.42
56630;BME280;42502;40.732;-74.254;2022-12-07T08:16:29;101256.41;;;17.96;44.29
56630;BME280;42502;40.732;-74.254;2022-12-07T08:18:30;101254.75;;;17.94;44.55
56630;BME280;42502;40.732;-74.254;2022-12-07T08:20:31;101245.06;;;17.92;44.46
56630;BME280;42502;40.732;-74.254;2022-12-07T08:22:33;101250.00;;;17.95;44.23
56630;BME280;42502;40.732;-74.254;2022-12-07T08:24:35;101255.59;;;17.95;44.36
56630;BME280;42502;40.732;-74.254;2022-12-07T08:26:36;101247.22;;;17.95;44.29
56630;BME280;42502;40.732;-74.254;2022-12-07T08:28:37;101249.16;;;17.94;44.52
56630;BME280;42502;40.732;-74.254;2022-12-07T08:30:38;101253.63;;;17.96;44.26
56630;BME280;42502;40.732;-74.254;2022-12-07T08:32:41;101261.19;;;17.95;44.27
56630;BME280;42502;40.732;-74.254;2022-12-07T08:34:42;101262.00;;;17.96;44.28
56630;BME280;42502;40.732;-74.254;2022-12-07T08:36:43;101264.81;;;17.96;44.38
56630;BME280;42502;40.732;-74.254;2022-12-07T08:38:47;101252.59;;;17.91;44.31
56630;BME280;42502;40.732;-74.254;2022-12-07T08:40:55;101258.41;;;17.95;44.53
56630;BME280;42502;40.732;-74.254;2022-12-07T08:42:56;101265.63;;;17.96;44.47
56630;BME280;42502;40.732;-74.254;2022-12-07T08:44:57;101255.59;;;17.95;44.31
56630;BME280;42502;40.732;-74.254;2022-12-07T08:47:01;101262.00;;;17.96;44.45
56630;BME280;42502;40.732;-74.254;2022-12-07T08:49:13;101257.56;;;17.94;44.25
56630;BME280;42502;40.732;-74.254;2022-12-07T08:51:17;101252.28;;;17.93;44.41
56630;BME280;42502;40.732;-74.254;2022-12-07T08:53:21;101258.06;;;17.97;44.31
56630;BME280;42502;40.732;-74.254;2022-12-07T08:55:25;101258.06;;;17.97;44.36
56630;BME280;42502;40.732;-74.254;2022-12-07T08:57:29;101257.22;;;17.96;44.22
56630;BME280;42502;40.732;-74.254;2022-12-07T08:59:30;101258.19;;;17.91;44.16
56630;BME280;42502;40.732;-74.254;2022-12-07T09:01:32;101261.50;;;17.93;44.39
56630;BME280;42502;40.732;-74.254;2022-12-07T09:03:33;101271.53;;;17.94;44.37
56630;BME280;42502;40.732;-74.254;2022-12-07T09:05:34;101263.16;;;17.94;44.39
56630;BME280;42502;40.732;-74.254;2022-12-07T09:07:36;101263.16;;;17.94;44.43
56630;BME280;42502;40.732;-74.254;2022-12-07T09:09:37;101263.16;;;17.94;44.21
56630;BME280;42502;40.732;-74.254;2022-12-07T09:11:38;101263.16;;;17.94;44.35
56630;BME280;42502;40.732;-74.254;2022-12-07T09:13:39;101260.34;;;17.94;44.35
56630;BME280;42502;40.732;-74.254;2022-12-07T09:15:43;101265.94;;;17.94;44.14
56630;BME280;42502;40.732;-74.254;2022-12-07T09:17:44;101261.00;;;17.91;44.29
56630;BME280;42502;40.732;-74.254;2022-12-07T09:19:45;101255.41;;;17.91;44.04
56630;BME280;42502;40.732;-74.254;2022-12-07T09:21:46;101258.19;;;17.91;44.37
56630;BME280;42502;40.732;-74.254;2022-12-07T09:23:46;101265.13;;;17.94;44.24
56630;BME280;42502;40.732;-74.254;2022-12-07T09:25:47;101271.53;;;17.94;44.02
56630;BME280;42502;40.732;-74.254;2022-12-07T09:27:55;101258.53;;;17.90;44.10
56630;BME280;42502;40.732;-74.254;2022-12-07T09:29:56;101267.09;;;17.93;44.21
56630;BME280;42502;40.732;-74.254;2022-12-07T09:31:57;101253.78;;;17.90;44.40
56630;BME280;42502;40.732;-74.254;2022-12-07T09:33:59;101260.34;;;17.94;44.21
56630;BME280;42502;40.732;-74.254;2022-12-07T09:36:00;101254.59;;;17.91;44.25
56630;BME280;42502;40.732;-74.254;2022-12-07T09:38:13;101248.19;;;17.90;44.31
56630;BME280;42502;40.732;-74.254;2022-12-07T09:40:16;101244.84;;;17.88;44.00
56630;BME280;42502;40.732;-74.254;2022-12-07T09:42:41;101259.84;;;17.92;44.29
56630;BME280;42502;40.732;-74.254;2022-12-07T09:44:50;101257.88;;;17.93;44.21
56630;BME280;42502;40.732;-74.254;2022-12-07T09:46:51;101254.09;;;17.89;44.20
56630;BME280;42502;40.732;-74.254;2022-12-07T09:48:53;101261.50;;;17.93;44.29
56630;BME280;42502;40.732;-74.254;2022-12-07T09:50:58;101248.19;;;17.90;43.99
56630;BME280;42502;40.732;-74.254;2022-12-07T09:53:24;101239.25;;;17.88;44.06
56630;BME280;42502;40.732;-74.254;2022-12-07T09:55:30;101257.88;;;17.93;44.03
56630;BME280;42502;40.732;-74.254;2022-12-07T09:57:33;101254.25;;;17.92;44.15
56630;BME280;42502;40.732;-74.254;2022-12-07T09:59:37;101252.28;;;17.93;44.24
56630;BME280;42502;40.732;-74.254;2022-12-07T10:01:39;101253.78;;;17.90;44.10
56630;BME280;42502;40.732;-74.254;2022-12-07T10:03:45;101259.38;;;17.90;44.07
56630;BME280;42502;40.732;-74.254;2022-12-07T10:05:52;101259.84;;;17.92;43.93
56630;BME280;42502;40.732;-74.254;2022-12-07T10:07:53;101255.91;;;17.93;44.06
56630;BME280;42502;40.732;-74.254;2022-12-07T10:09:54;101255.06;;;17.93;44.21
56630;BME280;42502;40.732;-74.254;2022-12-07T10:12:11;101258.19;;;17.91;44.17
56630;BME280;42502;40.732;-74.254;2022-12-07T10:14:13;101261.50;;;17.93;44.22
56630;BME280;42502;40.732;-74.254;2022-12-07T10:18:29;101259.84;;;17.92;43.99
56630;BME280;42502;40.732;-74.254;2022-12-07T10:20:30;101255.19;;;17.88;44.21
56630;BME280;42502;40.732;-74.254;2022-12-07T10:22:31;101259.38;;;17.90;44.05
56630;BME280;42502;40.732;-74.254;2022-12-07T10:24:32;101246.53;;;17.89;43.94
56630;BME280;42502;40.732;-74.254;2022-12-07T10:28:51;101251.28;;;17.89;44.05
56630;BME280;42502;40.732;-74.254;2022-12-07T10:31:00;101259.03;;;17.92;44.32
56630;BME280;42502;40.732;-74.254;2022-12-07T10:33:27;101259.03;;;17.92;44.15
56630;BME280;42502;40.732;-74.254;2022-12-07T10:35:30;101261.50;;;17.93;44.01
56630;BME280;42502;40.732;-74.254;2022-12-07T10:37:40;101252.59;;;17.91;43.91
56630;BME280;42502;40.732;-74.254;2022-12-07T10:39:48;101259.84;;;17.92;44.14
56630;BME280;42502;40.732;-74.254;2022-12-07T10:42:00;101249.31;;;17.89;44.10
56630;BME280;42502;40.732;-74.254;2022-12-07T10:44:01;101243.91;;;17.93;44.05
56630;BME280;42502;40.732;-74.254;2022-12-07T10:48:59;101255.41;;;17.91;44.24
56630;BME280;42502;40.732;-74.254;2022-12-07T10:58:21;101261.84;;;17.92;44.01
56630;BME280;42502;40.732;-74.254;2022-12-07T11:00:27;101264.31;;;17.93;43.98
56630;BME280;42502;40.732;-74.254;2022-12-07T11:06:09;101269.38;;;17.91;44.02
56630;BME280;42502;40.732;-74.254;2022-12-07T11:08:44;101281.09;;;17.93;43.82
56630;BME280;42502;40.732;-74.254;2022-12-07T11:18:09;101261.00;;;17.91;43.92
56630;BME280;42502;40.732;-74.254;2022-12-07T11:27:55;101267.09;;;17.93;44.14
56630;BME280;42502;40.732;-74.254;2022-12-07T11:32:41;101259.84;;;17.92;43.96
56630;BME280;42502;40.732;-74.254;2022-12-07T11:36:49;101257.88;;;17.93;44.06
56630;BME280;42502;40.732;-74.254;2022-12-07T11:38:54;101249.50;;;17.93;43.80